createdAt,value
2018-09-11T00:00:25.516Z,53.80
2018-09-11T00:02:56.459Z,53.60
2018-09-11T00:05:27.626Z,53.50
2018-09-11T00:07:58.753Z,53.50
2018-09-11T00:10:29.806Z,53.60
2018-09-11T00:13:01.531Z,53.60
2018-09-11T00:15:32.662Z,53.60
2018-09-11T00:18:03.537Z,53.70
2018-09-11T00:20:34.603Z,54.00
2018-09-11T00:23:05.616Z,53.70
2018-09-11T00:25:36.524Z,53.50
2018-09-11T00:28:07.693Z,53.60
2018-09-11T00:30:38.579Z,53.80
2018-09-11T00:33:09.549Z,53.70
2018-09-11T00:35:40.418Z,53.50
2018-09-11T00:38:11.334Z,53.60
2018-09-11T00:40:42.255Z,53.50
2018-09-11T00:43:13.136Z,53.50
2018-09-11T00:45:44.144Z,53.40
2018-09-11T00:48:15.048Z,53.60
2018-09-11T00:50:45.907Z,53.50
2018-09-11T00:53:17.212Z,53.40
2018-09-11T00:55:48.544Z,53.10
2018-09-11T00:58:19.999Z,52.90
2018-09-11T01:00:51.132Z,52.70
2018-09-11T01:03:22.198Z,52.70
2018-09-11T01:05:53.442Z,52.70
2018-09-11T01:08:24.413Z,52.80
2018-09-11T01:10:55.274Z,52.80
2018-09-11T01:13:26.685Z,52.90
2018-09-11T01:15:57.936Z,52.90
2018-09-11T01:18:29.723Z,52.90
2018-09-11T01:21:01.288Z,53.20
2018-09-11T01:23:32.562Z,53.20
2018-09-11T01:26:04.960Z,52.80
2018-09-11T01:28:36.371Z,52.90
2018-09-11T01:31:07.376Z,53.10
2018-09-11T01:33:38.309Z,53.00
2018-09-11T01:36:09.323Z,53.20
2018-09-11T01:38:40.297Z,53.50
2018-09-11T01:41:11.873Z,53.30
2018-09-11T01:43:43.707Z,53.50
2018-09-11T01:46:14.548Z,53.60
2018-09-11T01:48:45.492Z,53.80
2018-09-11T01:51:16.386Z,53.50
2018-09-11T01:53:47.270Z,53.30
2018-09-11T01:56:18.461Z,53.30
2018-09-11T01:58:49.592Z,53.30
2018-09-11T02:01:20.540Z,53.20
2018-09-11T02:03:51.889Z,53.20
2018-09-11T02:06:22.844Z,53.60
2018-09-11T02:08:53.755Z,54.20
2018-09-11T02:11:24.742Z,54.50
2018-09-11T02:13:55.578Z,54.40
2018-09-11T02:16:26.539Z,55.00
2018-09-11T02:18:57.354Z,54.60
2018-09-11T02:21:28.214Z,54.50
2018-09-11T02:23:59.104Z,54.40
2018-09-11T02:26:30.113Z,54.50
2018-09-11T02:29:00.998Z,54.50
2018-09-11T02:31:31.869Z,54.40
2018-09-11T02:34:02.885Z,54.40
2018-09-11T02:36:33.874Z,54.50
2018-09-11T02:39:06.669Z,54.40
2018-09-11T02:41:38.344Z,54.30
2018-09-11T02:44:10.223Z,54.80
2018-09-11T02:46:41.400Z,54.10
2018-09-11T02:49:12.328Z,53.90
2018-09-11T02:51:43.570Z,54.20
2018-09-11T02:54:14.456Z,54.10
2018-09-11T02:56:45.322Z,53.90
2018-09-11T02:59:16.568Z,53.80
2018-09-11T03:01:47.596Z,53.80
2018-09-11T03:04:19.211Z,54.00
2018-09-11T03:06:50.177Z,54.00
2018-09-11T03:09:21.463Z,54.20
2018-09-11T03:11:52.381Z,54.50
2018-09-11T03:14:23.568Z,55.40
2018-09-11T03:16:54.679Z,55.70
2018-09-11T03:19:25.543Z,56.00
2018-09-11T03:21:56.457Z,56.00
2018-09-11T03:24:27.543Z,55.50
2018-09-11T03:26:58.404Z,55.00
2018-09-11T03:29:29.988Z,55.00
2018-09-11T03:32:01.217Z,54.70
2018-09-11T03:34:32.592Z,54.80
2018-09-11T03:37:04.678Z,54.80
2018-09-11T03:39:35.570Z,54.90
2018-09-11T03:42:07.116Z,54.90
2018-09-11T03:44:38.093Z,55.00
2018-09-11T03:47:09.702Z,55.00
2018-09-11T03:49:41.536Z,54.80
2018-09-11T03:52:12.859Z,55.00
2018-09-11T03:54:43.792Z,55.10
2018-09-11T03:57:14.854Z,55.20
2018-09-11T03:59:46.418Z,55.20
2018-09-11T04:02:17.613Z,55.00
2018-09-11T04:04:48.838Z,56.00
2018-09-11T04:07:19.899Z,55.70
2018-09-11T04:09:50.860Z,55.70
2018-09-11T04:12:21.963Z,55.70
2018-09-11T04:14:52.916Z,55.70
2018-09-11T04:17:27.848Z,55.90
2018-09-11T04:19:58.910Z,55.90
2018-09-11T04:22:29.876Z,56.00
2018-09-11T04:25:00.764Z,56.30
2018-09-11T04:27:34.379Z,56.30
2018-09-11T04:30:05.688Z,56.10
2018-09-11T04:32:36.700Z,56.60
2018-09-11T04:35:07.738Z,56.40
2018-09-11T04:37:38.703Z,56.30
2018-09-11T04:40:09.710Z,56.30
2018-09-11T04:42:40.583Z,56.60
2018-09-11T04:45:11.505Z,56.80
2018-09-11T04:47:42.393Z,57.00
2018-09-11T04:50:13.407Z,57.40
2018-09-11T04:52:44.347Z,57.60
2018-09-11T04:55:15.282Z,57.70
2018-09-11T04:57:46.921Z,57.70
2018-09-11T05:00:19.142Z,57.90
2018-09-11T05:02:51.178Z,58.30
2018-09-11T05:05:22.827Z,59.40
2018-09-11T05:07:54.239Z,58.90
2018-09-11T05:10:25.813Z,58.70
2018-09-11T05:12:57.586Z,58.70
2018-09-11T05:15:29.023Z,58.70
2018-09-11T05:18:00.567Z,58.10
2018-09-11T05:20:32.293Z,58.30
2018-09-11T05:23:04.076Z,58.50
2018-09-11T05:25:35.625Z,58.70
2018-09-11T05:28:07.097Z,58.70
2018-09-11T05:30:38.759Z,59.00
2018-09-11T05:33:10.585Z,58.90
2018-09-11T05:35:44.168Z,58.70
2018-09-11T05:38:15.928Z,58.70
2018-09-11T05:40:47.395Z,58.70
2018-09-11T05:43:18.545Z,57.90
2018-09-11T05:45:50.346Z,57.50
2018-09-11T05:48:21.721Z,57.20
2018-09-11T05:50:52.718Z,56.70
2018-09-11T05:53:24.853Z,56.60
2018-09-11T05:55:56.043Z,56.00
2018-09-11T05:58:27.035Z,56.60
2018-09-11T06:00:58.016Z,56.20
2018-09-11T06:03:29.021Z,55.70
2018-09-11T06:06:00.045Z,55.50
2018-09-11T06:08:31.065Z,55.50
2018-09-11T06:11:01.977Z,55.20
2018-09-11T06:13:32.975Z,55.50
2018-09-11T06:16:03.997Z,54.90
2018-09-11T06:18:34.986Z,54.30
2018-09-11T06:21:05.960Z,54.20
2018-09-11T06:23:36.965Z,53.90
2018-09-11T06:26:08.009Z,53.90
2018-09-11T06:28:38.936Z,53.80
2018-09-11T06:31:10.035Z,54.00
2018-09-11T06:33:40.922Z,53.60
2018-09-11T06:36:11.921Z,53.90
2018-09-11T06:38:42.808Z,53.60
2018-09-11T06:41:14.070Z,53.60
2018-09-11T06:43:45.040Z,53.70
2018-09-11T06:46:16.005Z,53.40
2018-09-11T06:48:46.997Z,52.80
2018-09-11T06:51:18.034Z,52.60
2018-09-11T06:53:48.995Z,52.20
2018-09-11T06:56:19.910Z,51.40
2018-09-11T06:58:50.820Z,50.90
2018-09-11T07:01:21.794Z,50.30
2018-09-11T07:03:52.779Z,50.10
2018-09-11T07:06:24.108Z,50.10
2018-09-11T07:08:55.065Z,49.80
2018-09-11T07:11:26.066Z,49.40
2018-09-11T07:13:57.042Z,49.60
2018-09-11T07:16:28.099Z,49.70
2018-09-11T07:18:59.047Z,49.60
2018-09-11T07:21:30.045Z,50.00
2018-09-11T07:24:01.098Z,49.60
2018-09-11T07:26:32.058Z,49.90
2018-09-11T07:29:02.932Z,50.00
2018-09-11T07:31:34.329Z,50.00
2018-09-11T07:34:05.306Z,50.20
2018-09-11T07:36:36.264Z,48.90
2018-09-11T07:39:09.277Z,48.10
2018-09-11T07:41:40.181Z,47.10
2018-09-11T07:44:11.263Z,45.90
2018-09-11T07:46:42.320Z,45.10
2018-09-11T07:49:13.233Z,43.30
2018-09-11T07:51:44.149Z,43.40
2018-09-11T07:54:15.127Z,43.60
2018-09-11T07:56:46.178Z,42.70
2018-09-11T07:59:17.151Z,41.80
2018-09-11T08:01:48.178Z,40.70
2018-09-11T08:04:19.081Z,40.30
2018-09-11T08:06:49.998Z,40.10
2018-09-11T08:09:20.983Z,40.50
2018-09-11T08:11:52.028Z,41.40
2018-09-11T08:14:22.986Z,41.90
2018-09-11T08:16:53.966Z,42.50
2018-09-11T08:19:24.886Z,42.80
2018-09-11T08:21:55.848Z,43.90
2018-09-11T08:24:27.069Z,44.70
2018-09-11T08:26:58.051Z,45.40
2018-09-11T08:29:29.073Z,46.20
2018-09-11T08:32:00.670Z,46.50
2018-09-11T08:34:31.621Z,46.30
2018-09-11T08:37:02.559Z,45.70
2018-09-11T08:39:33.671Z,45.50
2018-09-11T08:42:04.646Z,45.40
2018-09-11T08:44:35.607Z,45.20
2018-09-11T08:47:07.226Z,45.00
2018-09-11T08:49:38.246Z,44.80
2018-09-11T08:52:09.323Z,44.80
2018-09-11T08:54:40.424Z,44.00
2018-09-11T08:57:11.399Z,44.30
2018-09-11T08:59:43.293Z,44.50
2018-09-11T09:02:14.403Z,44.90
2018-09-11T09:04:45.953Z,45.10
2018-09-11T09:07:16.979Z,45.40
2018-09-11T09:09:48.665Z,44.50
2018-09-11T09:12:19.678Z,43.50
2018-09-11T09:14:50.589Z,42.50
2018-09-11T09:17:21.703Z,41.60
2018-09-11T09:19:52.618Z,41.70
2018-09-11T09:22:23.548Z,40.80
2018-09-11T09:24:54.799Z,40.50
2018-09-11T09:27:25.756Z,39.50
2018-09-11T09:29:56.745Z,38.40
2018-09-11T09:32:27.867Z,37.30
2018-09-11T09:34:58.749Z,37.00
2018-09-11T09:37:29.763Z,36.40
2018-09-11T09:40:00.854Z,36.20
2018-09-11T09:42:31.818Z,36.90
2018-09-11T09:45:02.783Z,36.30
2018-09-11T09:47:33.754Z,36.90
2018-09-11T09:50:04.762Z,36.60
2018-09-11T09:52:35.691Z,36.20
2018-09-11T09:55:06.796Z,36.10
2018-09-11T09:57:37.715Z,34.50
2018-09-11T10:00:08.796Z,33.80
2018-09-11T10:02:39.740Z,34.10
2018-09-11T10:05:10.662Z,33.40
2018-09-11T10:07:41.607Z,33.60
2018-09-11T10:10:12.546Z,33.20
2018-09-11T10:12:43.457Z,34.20
2018-09-11T10:15:14.417Z,34.90
2018-09-11T10:17:45.368Z,34.70
2018-09-11T10:20:16.224Z,34.90
2018-09-11T10:22:47.212Z,33.90
2018-09-11T10:25:18.201Z,33.60
2018-09-11T10:27:49.111Z,34.50
2018-09-11T10:30:20.074Z,34.70
2018-09-11T10:32:51.036Z,34.90
2018-09-11T10:35:21.953Z,35.00
2018-09-11T10:37:52.899Z,34.80
2018-09-11T10:40:23.974Z,34.70
2018-09-11T10:42:54.931Z,34.30
2018-09-11T10:45:25.871Z,34.20
2018-09-11T10:47:56.815Z,34.40
2018-09-11T10:50:27.730Z,34.70
2018-09-11T10:52:58.766Z,34.90
2018-09-11T10:55:29.648Z,34.70
2018-09-11T10:58:00.662Z,35.30
2018-09-11T11:00:31.782Z,35.30
2018-09-11T11:03:02.724Z,35.70
2018-09-11T11:05:33.633Z,35.70
2018-09-11T11:08:04.570Z,35.80
2018-09-11T11:10:35.624Z,35.70
2018-09-11T11:13:07.566Z,35.70
2018-09-11T11:15:38.472Z,36.20
2018-09-11T11:18:09.740Z,37.50
2018-09-11T11:20:40.698Z,38.20
2018-09-11T11:23:11.633Z,38.40
2018-09-11T11:25:42.671Z,38.40
2018-09-11T11:28:13.632Z,38.50
2018-09-11T11:30:44.513Z,39.50
2018-09-11T11:33:15.522Z,38.70
2018-09-11T11:35:46.413Z,38.20
2018-09-11T11:38:17.468Z,37.50
2018-09-11T11:40:48.446Z,36.30
2018-09-11T11:43:19.459Z,36.30
2018-09-11T11:45:50.870Z,35.10
2018-09-11T11:48:21.913Z,35.50
2018-09-11T11:50:52.921Z,35.00
2018-09-11T11:53:23.836Z,34.80
2018-09-11T11:55:54.765Z,34.50
2018-09-11T11:58:25.730Z,34.90
2018-09-11T12:00:56.726Z,35.30
2018-09-11T12:03:27.669Z,34.20
2018-09-11T12:05:58.657Z,35.20
2018-09-11T12:08:30.423Z,34.70
2018-09-11T12:11:01.556Z,33.90
2018-09-11T12:13:32.692Z,34.90
2018-09-11T12:16:03.711Z,36.10
2018-09-11T12:18:34.720Z,35.60
2018-09-11T12:21:05.731Z,35.40
2018-09-11T12:23:36.718Z,35.90
2018-09-11T12:26:07.733Z,35.30
2018-09-11T12:28:38.658Z,35.90
2018-09-11T12:31:09.749Z,36.80
2018-09-11T12:33:40.870Z,36.90
2018-09-11T12:36:11.852Z,37.30
2018-09-11T12:38:43.098Z,36.80
2018-09-11T12:41:14.068Z,35.60
2018-09-11T12:43:45.071Z,35.30
2018-09-11T12:46:16.267Z,34.00
2018-09-11T12:48:47.123Z,34.40
2018-09-11T12:51:18.136Z,34.40
2018-09-11T12:53:49.238Z,34.20
2018-09-11T12:56:20.153Z,33.80
2018-09-11T12:58:51.311Z,34.30
2018-09-11T13:01:22.293Z,34.20
2018-09-11T13:03:53.799Z,34.20
2018-09-11T13:06:26.189Z,34.10
2018-09-11T13:08:57.274Z,35.00
2018-09-11T13:11:28.232Z,34.40
2018-09-11T13:13:59.176Z,34.20
2018-09-11T13:16:30.143Z,33.80
2018-09-11T13:19:01.132Z,33.80
2018-09-11T13:21:31.996Z,34.10
2018-09-11T13:24:03.029Z,33.60
2018-09-11T13:26:33.982Z,33.30
2018-09-11T13:29:05.035Z,33.10
2018-09-11T13:31:36.157Z,33.50
2018-09-11T13:34:07.180Z,33.90
2018-09-11T13:36:38.103Z,34.00
2018-09-11T13:39:10.430Z,33.90
2018-09-11T13:41:41.361Z,34.70
2018-09-11T13:44:12.381Z,34.70
2018-09-11T13:46:43.246Z,35.10
2018-09-11T13:49:14.185Z,35.20
2018-09-11T13:51:45.186Z,34.90
2018-09-11T13:54:16.099Z,35.60
2018-09-11T13:56:47.017Z,35.70
2018-09-11T13:59:17.979Z,36.00
2018-09-11T14:01:49.013Z,36.70
2018-09-11T14:04:20.007Z,36.70
2018-09-11T14:06:50.965Z,36.60
2018-09-11T14:09:21.856Z,36.60
2018-09-11T14:11:52.866Z,37.00
2018-09-11T14:14:25.166Z,37.10
2018-09-11T14:16:56.810Z,37.00
2018-09-11T14:19:28.057Z,37.60
2018-09-11T14:21:59.797Z,36.80
2018-09-11T14:24:31.468Z,36.50
2018-09-11T14:27:03.022Z,37.20
2018-09-11T14:29:34.680Z,36.50
2018-09-11T14:32:05.979Z,37.30
2018-09-11T14:34:37.374Z,36.60
2018-09-11T14:37:09.052Z,37.20
2018-09-11T14:39:40.372Z,37.50
2018-09-11T14:42:11.747Z,37.80
2018-09-11T14:44:47.016Z,37.50
2018-09-11T14:47:17.929Z,37.90
2018-09-11T14:49:48.821Z,37.70
2018-09-11T14:52:20.467Z,37.60
2018-09-11T14:54:52.017Z,38.30
2018-09-11T14:57:23.275Z,38.40
2018-09-11T14:59:54.320Z,38.40
2018-09-11T15:02:25.903Z,38.50
2018-09-11T15:04:56.796Z,38.70
2018-09-11T15:07:27.856Z,38.30
2018-09-11T15:09:59.247Z,38.30
2018-09-11T15:12:31.767Z,38.40
2018-09-11T15:15:02.790Z,38.80
2018-09-11T15:17:33.710Z,38.60
2018-09-11T15:20:04.849Z,38.80
2018-09-11T15:22:36.379Z,38.90
2018-09-11T15:25:08.115Z,39.00
2018-09-11T15:27:39.169Z,39.60
2018-09-11T15:30:10.114Z,40.10
2018-09-11T15:32:41.066Z,40.40
2018-09-11T15:35:12.035Z,40.60
2018-09-11T15:37:43.293Z,40.70
2018-09-11T15:40:14.264Z,40.60
2018-09-11T15:42:46.053Z,40.60
2018-09-11T15:45:17.010Z,41.00
2018-09-11T15:47:47.904Z,41.20
2018-09-11T15:50:18.894Z,41.40
2018-09-11T15:52:49.851Z,41.60
2018-09-11T15:55:20.774Z,42.70
2018-09-11T15:57:51.901Z,43.90
2018-09-11T16:00:22.829Z,44.90
2018-09-11T16:02:53.702Z,45.20
2018-09-11T16:05:24.621Z,46.00
2018-09-11T16:07:55.451Z,46.70
2018-09-11T16:10:26.343Z,46.00
2018-09-11T16:12:57.359Z,45.50
2018-09-11T16:15:32.590Z,45.80
2018-09-11T16:18:03.856Z,45.50
2018-09-11T16:20:35.703Z,45.70
2018-09-11T16:23:07.660Z,45.70
2018-09-11T16:25:38.597Z,46.10
2018-09-11T16:28:09.495Z,47.10
2018-09-11T16:30:43.638Z,46.50
2018-09-11T16:33:15.794Z,46.50
2018-09-11T16:35:46.813Z,46.50
2018-09-11T16:38:17.624Z,46.60
2018-09-11T16:40:48.647Z,46.40
2018-09-11T16:43:19.726Z,47.00
2018-09-11T16:45:50.710Z,47.00
2018-09-11T16:48:21.595Z,47.40
2018-09-11T16:50:52.503Z,47.50
2018-09-11T16:53:23.512Z,47.80
2018-09-11T16:55:54.519Z,48.20
2018-09-11T16:58:25.784Z,48.10
2018-09-11T17:00:57.157Z,48.50
2018-09-11T17:03:28.194Z,48.40
2018-09-11T17:05:59.372Z,48.50
2018-09-11T17:08:30.451Z,48.50
2018-09-11T17:11:01.784Z,48.90
2018-09-11T17:13:32.680Z,48.90
2018-09-11T17:16:03.824Z,49.00
2018-09-11T17:18:34.898Z,49.00
2018-09-11T17:21:05.929Z,49.10
2018-09-11T17:23:36.996Z,49.00
2018-09-11T17:26:08.017Z,49.00
2018-09-11T17:28:39.563Z,49.50
2018-09-11T17:31:10.581Z,49.90
2018-09-11T17:33:41.540Z,50.40
2018-09-11T17:36:12.480Z,50.50
2018-09-11T17:38:43.497Z,50.90
2018-09-11T17:41:14.440Z,51.10
2018-09-11T17:43:45.307Z,51.00
2018-09-11T17:46:17.217Z,51.20
2018-09-11T17:48:48.172Z,51.30
2018-09-11T17:51:20.262Z,51.20
2018-09-11T17:53:55.784Z,51.00
2018-09-11T17:56:26.738Z,51.80
2018-09-11T17:58:59.233Z,51.60
2018-09-11T18:01:32.530Z,51.30
2018-09-11T18:04:03.552Z,52.00
2018-09-11T18:06:35.486Z,52.00
2018-09-11T18:09:08.690Z,51.80
2018-09-11T18:11:40.314Z,52.20
2018-09-11T18:14:11.213Z,52.90
2018-09-11T18:16:42.126Z,53.40
2018-09-11T18:19:13.001Z,53.50
2018-09-11T18:21:43.913Z,53.40
2018-09-11T18:24:15.660Z,53.40
2018-09-11T18:26:46.677Z,53.30
2018-09-11T18:29:18.464Z,53.10
2018-09-11T18:31:49.529Z,53.30
2018-09-11T18:34:21.052Z,53.70
2018-09-11T18:36:53.706Z,54.00
2018-09-11T18:39:26.468Z,54.40
2018-09-11T18:42:08.596Z,54.50
2018-09-11T18:44:49.192Z,54.60
2018-09-11T18:47:21.342Z,54.80
2018-09-11T18:49:55.150Z,55.00
2018-09-11T18:52:26.685Z,55.40
2018-09-11T18:54:59.060Z,55.60
2018-09-11T18:57:30.076Z,55.10
2018-09-11T19:00:00.991Z,55.50
2018-09-11T19:02:31.962Z,55.40
2018-09-11T19:05:02.974Z,56.10
2018-09-11T19:07:34.196Z,56.00
2018-09-11T19:10:05.536Z,55.40
2018-09-11T19:12:36.444Z,55.00
2018-09-11T19:15:07.854Z,55.60
2018-09-11T19:17:39.169Z,54.90
2018-09-11T19:20:10.180Z,54.50
2018-09-11T19:22:41.712Z,54.60
2018-09-11T19:25:12.928Z,54.50
2018-09-11T19:27:43.862Z,54.60
2018-09-11T19:30:14.977Z,54.70
2018-09-11T19:32:48.529Z,55.00
2018-09-11T19:35:19.533Z,55.20
2018-09-11T19:37:50.587Z,55.30
2018-09-11T19:40:24.286Z,55.00
2018-09-11T19:42:55.626Z,54.70
2018-09-11T19:45:26.726Z,54.60
2018-09-11T19:47:57.752Z,54.80
2018-09-11T19:50:28.946Z,54.40
2018-09-11T19:53:00.042Z,54.40
2018-09-11T19:55:31.313Z,55.00
2018-09-11T19:58:02.382Z,54.40
2018-09-11T20:00:33.576Z,54.40
2018-09-11T20:03:04.600Z,54.40
2018-09-11T20:05:35.994Z,54.40
2018-09-11T20:08:07.071Z,54.60
2018-09-11T20:10:38.139Z,54.60
2018-09-11T20:13:09.981Z,54.70
2018-09-11T20:15:41.364Z,54.80
2018-09-11T20:18:12.822Z,55.00
2018-09-11T20:20:43.980Z,54.90
2018-09-11T20:23:16.518Z,54.70
2018-09-11T20:25:47.584Z,54.90
2018-09-11T20:28:18.631Z,54.60
2018-09-11T20:30:49.811Z,54.90
2018-09-11T20:33:20.933Z,54.90
2018-09-11T20:35:52.135Z,55.10
2018-09-11T20:38:23.163Z,56.10
2018-09-11T20:40:54.166Z,55.30
2018-09-11T20:43:25.303Z,55.20
2018-09-11T20:45:56.293Z,55.40
2018-09-11T20:48:27.265Z,55.10
2018-09-11T20:50:58.269Z,55.10
2018-09-11T20:53:29.186Z,55.20
2018-09-11T20:56:00.916Z,55.20
2018-09-11T20:58:31.900Z,55.20
2018-09-11T21:01:03.601Z,55.30
2018-09-11T21:03:34.844Z,55.30
2018-09-11T21:06:05.986Z,55.10
2018-09-11T21:08:38.517Z,54.90
2018-09-11T21:11:09.712Z,54.80
2018-09-11T21:13:40.979Z,55.60
2018-09-11T21:16:12.440Z,55.10
2018-09-11T21:18:43.657Z,55.10
2018-09-11T21:21:15.142Z,55.20
2018-09-11T21:23:46.318Z,55.40
2018-09-11T21:26:17.791Z,55.50
2018-09-11T21:28:48.820Z,55.30
2018-09-11T21:31:19.801Z,55.10
2018-09-11T21:33:50.882Z,55.20
2018-09-11T21:36:21.755Z,55.30
2018-09-11T21:38:52.988Z,55.50
2018-09-11T21:41:23.864Z,55.80
2018-09-11T21:43:54.905Z,55.70
2018-09-11T21:46:26.173Z,55.40
2018-09-11T21:48:57.338Z,55.60
2018-09-11T21:51:28.346Z,55.60
2018-09-11T21:53:59.550Z,55.70
2018-09-11T21:56:31.112Z,56.50
2018-09-11T21:59:02.150Z,55.70
2018-09-11T22:01:38.170Z,56.20
2018-09-11T22:04:09.165Z,56.40
2018-09-11T22:06:40.703Z,56.40
2018-09-11T22:09:12.556Z,56.30
2018-09-11T22:11:43.440Z,56.10
2018-09-11T22:14:14.361Z,55.30
2018-09-11T22:16:45.573Z,55.00
2018-09-11T22:19:16.490Z,54.90
2018-09-11T22:21:47.332Z,54.70
2018-09-11T22:24:18.477Z,54.70
2018-09-11T22:26:49.658Z,54.70
2018-09-11T22:29:20.890Z,54.70
2018-09-11T22:31:51.883Z,54.70
2018-09-11T22:34:23.720Z,54.60
2018-09-11T22:36:54.784Z,54.80
2018-09-11T22:39:26.485Z,55.40
2018-09-11T22:41:57.434Z,55.00
2018-09-11T22:44:28.952Z,55.20
2018-09-11T22:47:00.009Z,55.00
2018-09-11T22:49:30.938Z,55.10
2018-09-11T22:52:01.816Z,55.30
2018-09-11T22:54:32.794Z,55.60
2018-09-11T22:57:03.758Z,56.50
2018-09-11T22:59:34.663Z,55.70
2018-09-11T23:02:05.517Z,55.80
2018-09-11T23:09:05.515Z,56.10
2018-09-11T23:11:36.468Z,56.20
2018-09-11T23:14:07.590Z,56.60
2018-09-11T23:16:38.597Z,56.80
2018-09-11T23:19:10.053Z,57.00
2018-09-11T23:21:40.915Z,57.20
2018-09-11T23:24:12.913Z,57.30
2018-09-11T23:26:43.817Z,57.30
2018-09-11T23:29:14.730Z,57.30
2018-09-11T23:31:45.670Z,57.30
2018-09-11T23:34:16.492Z,57.60
2018-09-11T23:36:47.292Z,57.60
2018-09-11T23:39:18.773Z,57.70
2018-09-11T23:41:49.684Z,57.60
2018-09-11T23:44:20.515Z,57.30
2018-09-11T23:46:51.372Z,57.10
2018-09-11T23:49:22.164Z,56.90
2018-09-11T23:51:52.988Z,56.90
2018-09-11T23:54:23.790Z,57.00
2018-09-11T23:56:54.645Z,57.10
2018-09-11T23:59:25.505Z,57.30
